Time;durP1;ratioP1;P1;durP2;ratioP2;P2;SDS_P1;SDS_P2;PMS_P1;PMS_P2;Temp;Humidity;BMP_temperature;BMP_pressure;BME280_temperature;BME280_humidity;BME280_pressure;Samples;Min_cycle;Max_cycle;Signal;HPM_P1;HPM_P2
2021/01/24 00:00:08;;;;;;;13.83;10.30;;;;;;;;;;5116521;28;20443;-73
2021/01/24 00:02:35;;;;;;;16.63;10.10;;;;;;;;;;5116991;28;20473;-74
2021/01/24 00:05:02;;;;;;;20.60;10.37;;;;;;;;;;5116833;28;20922;-73
2021/01/24 00:07:30;;;;;;;12.97;9.63;;;;;;;;;;5117217;28;20455;-73
2021/01/24 00:09:59;;;;;;;14.20;10.90;;;;;;;;;;5118221;28;20855;-73
2021/01/24 00:12:26;;;;;;;15.40;10.17;;;;;;;;;;5120132;28;20478;-73
2021/01/24 00:14:53;;;;;;;20.10;9.10;;;;;;;;;;5120956;28;20458;-74
2021/01/24 00:17:21;;;;;;;17.43;11.53;;;;;;;;;;5121048;28;20470;-74
2021/01/24 00:19:48;;;;;;;14.83;10.27;;;;;;;;;;5121620;28;20839;-74
2021/01/24 00:22:15;;;;;;;20.10;9.67;;;;;;;;;;5121369;28;20720;-73
2021/01/24 00:24:43;;;;;;;14.53;10.13;;;;;;;;;;5112559;28;20473;-74
2021/01/24 00:27:12;;;;;;;17.10;11.00;;;;;;;;;;5121289;28;20906;-74
2021/01/24 00:29:39;;;;;;;21.67;11.00;;;;;;;;;;5120908;28;20520;-74
2021/01/24 00:32:06;;;;;;;14.00;10.07;;;;;;;;;;5120729;28;20481;-73
2021/01/24 00:34:34;;;;;;;16.83;10.13;;;;;;;;;;5120571;28;20725;-73
2021/01/24 00:37:02;;;;;;;21.87;11.30;;;;;;;;;;5120670;28;20481;-73
2021/01/24 00:39:29;;;;;;;16.87;10.10;;;;;;;;;;5120322;28;20458;-74
2021/01/24 00:41:56;;;;;;;19.30;11.30;;;;;;;;;;5120525;28;20473;-74
2021/01/24 00:44:25;;;;;;;22.77;11.77;;;;;;;;;;5120683;28;20528;-73
2021/01/24 00:46:52;;;;;;;19.63;11.20;;;;;;;;;;5120707;28;20487;-74
2021/01/24 00:49:20;;;;;;;19.13;11.33;;;;;;;;;;5120326;28;20839;-74
2021/01/24 00:51:47;;;;;;;17.13;11.50;;;;;;;;;;5120818;28;20919;-74
2021/01/24 00:54:14;;;;;;;16.80;10.97;;;;;;;;;;5120800;28;20528;-74
2021/01/24 00:56:43;;;;;;;18.23;11.23;;;;;;;;;;5120466;28;20486;-74
2021/01/24 00:59:10;;;;;;;18.87;10.63;;;;;;;;;;5120126;28;20923;-74
2021/01/24 01:01:38;;;;;;;15.63;10.50;;;;;;;;;;5120244;28;20462;-74
2021/01/24 01:04:06;;;;;;;14.40;11.50;;;;;;;;;;5120311;28;20469;-73
2021/01/24 01:06:33;;;;;;;17.73;11.43;;;;;;;;;;5119697;28;20552;-74
2021/01/24 01:09:01;;;;;;;21.20;11.13;;;;;;;;;;5120078;28;20443;-74
2021/01/24 01:11:28;;;;;;;16.10;11.10;;;;;;;;;;5119846;28;20890;-74
2021/01/24 01:13:55;;;;;;;16.90;11.80;;;;;;;;;;5120107;28;20451;-74
2021/01/24 01:16:23;;;;;;;21.23;11.53;;;;;;;;;;5120116;28;20505;-74
2021/01/24 01:18:51;;;;;;;17.33;11.40;;;;;;;;;;5120095;28;20583;-74
2021/01/24 01:21:22;;;;;;;19.57;12.97;;;;;;;;;;5118858;28;20890;-74
2021/01/24 01:23:50;;;;;;;16.73;10.80;;;;;;;;;;5120217;28;20447;-74
2021/01/24 01:26:17;;;;;;;18.70;10.50;;;;;;;;;;5119882;28;20755;-74
2021/01/24 01:28:45;;;;;;;18.60;12.60;;;;;;;;;;5111883;28;20462;-74
2021/01/24 01:31:12;;;;;;;14.73;11.43;;;;;;;;;;5119890;28;20852;-74
2021/01/24 01:33:39;;;;;;;19.07;11.73;;;;;;;;;;5119819;28;20848;-74
2021/01/24 01:36:08;;;;;;;16.77;10.70;;;;;;;;;;5119447;28;20475;-74
2021/01/24 01:38:36;;;;;;;25.20;11.73;;;;;;;;;;5119496;28;20451;-74
2021/01/24 01:41:03;;;;;;;26.23;11.87;;;;;;;;;;5119200;28;20513;-74
2021/01/24 01:43:31;;;;;;;18.33;12.60;;;;;;;;;;5119407;28;20454;-74
2021/01/24 01:45:58;;;;;;;19.67;12.10;;;;;;;;;;5119285;28;20538;-74
2021/01/24 01:48:25;;;;;;;16.47;10.40;;;;;;;;;;5119521;28;20450;-73
2021/01/24 01:50:53;;;;;;;21.73;11.97;;;;;;;;;;5119933;28;20455;-74
2021/01/24 01:53:21;;;;;;;23.93;12.20;;;;;;;;;;5119677;28;20447;-74
2021/01/24 01:55:49;;;;;;;24.33;11.20;;;;;;;;;;5119274;28;20455;-74
2021/01/24 01:58:16;;;;;;;22.70;13.80;;;;;;;;;;5119591;28;20571;-74
2021/01/24 02:00:44;;;;;;;20.87;11.67;;;;;;;;;;5119392;28;20466;-73
2021/01/24 02:03:19;;;;;;;20.30;13.10;;;;;;;;;;5119556;28;20462;-73
2021/01/24 02:05:53;;;;;;;20.40;12.57;;;;;;;;;;5118639;28;20487;-73
2021/01/24 02:08:26;;;;;;;21.77;13.97;;;;;;;;;;5118935;28;20459;-73
2021/01/24 02:10:57;;;;;;;17.63;12.37;;;;;;;;;;5118936;28;20463;-73
2021/01/24 02:13:29;;;;;;;18.83;12.80;;;;;;;;;;5119211;28;20516;-74
2021/01/24 02:15:58;;;;;;;17.10;11.80;;;;;;;;;;5119482;28;20459;-73
2021/01/24 02:18:25;;;;;;;20.73;11.87;;;;;;;;;;5119226;28;20910;-73
2021/01/24 02:20:58;;;;;;;21.27;12.30;;;;;;;;;;5119078;28;20466;-74
2021/01/24 02:23:28;;;;;;;16.57;12.90;;;;;;;;;;5118804;28;20556;-74
2021/01/24 02:25:57;;;;;;;17.27;11.90;;;;;;;;;;5118311;28;20502;-74
2021/01/24 02:28:27;;;;;;;16.83;11.10;;;;;;;;;;5118810;28;20938;-74
2021/01/24 02:30:56;;;;;;;19.30;11.67;;;;;;;;;;5118047;28;20455;-74
2021/01/24 02:33:24;;;;;;;19.17;11.40;;;;;;;;;;5118168;28;20470;-73
2021/01/24 02:35:53;;;;;;;15.50;10.97;;;;;;;;;;5118406;28;20451;-75
2021/01/24 02:38:21;;;;;;;16.87;11.73;;;;;;;;;;5118474;28;20447;-74
2021/01/24 02:40:49;;;;;;;24.63;12.27;;;;;;;;;;5117983;28;20459;-74
2021/01/24 02:43:17;;;;;;;19.90;13.00;;;;;;;;;;5118391;28;20465;-74
2021/01/24 02:45:49;;;;;;;20.53;11.73;;;;;;;;;;5118303;28;20489;-74
2021/01/24 02:48:18;;;;;;;19.77;11.93;;;;;;;;;;5118707;28;20447;-74
2021/01/24 02:50:46;;;;;;;23.43;11.47;;;;;;;;;;5110292;28;20793;-74
2021/01/24 02:53:14;;;;;;;22.27;10.73;;;;;;;;;;5117598;28;20482;-73
2021/01/24 02:55:42;;;;;;;17.83;11.60;;;;;;;;;;5119663;28;20451;-73
2021/01/24 02:58:09;;;;;;;17.17;11.53;;;;;;;;;;5118328;28;20481;-74
2021/01/24 03:00:37;;;;;;;15.93;11.17;;;;;;;;;;5119055;28;20444;-74
2021/01/24 03:03:04;;;;;;;18.43;11.13;;;;;;;;;;5118611;28;20559;-74
2021/01/24 03:05:33;;;;;;;16.27;10.30;;;;;;;;;;5117967;28;20486;-74
2021/01/24 03:08:00;;;;;;;16.60;11.03;;;;;;;;;;5118101;28;20450;-74
2021/01/24 03:10:28;;;;;;;19.10;11.90;;;;;;;;;;5117585;28;20557;-74
2021/01/24 03:13:00;;;;;;;19.97;12.23;;;;;;;;;;5118138;28;20443;-74
2021/01/24 03:15:27;;;;;;;16.03;12.20;;;;;;;;;;5117580;28;20738;-74
2021/01/24 03:17:56;;;;;;;15.90;10.00;;;;;;;;;;5118265;28;20455;-74
2021/01/24 03:20:24;;;;;;;16.57;11.53;;;;;;;;;;5117388;28;21007;-74
2021/01/24 03:22:54;;;;;;;16.30;11.20;;;;;;;;;;5117646;28;20448;-74
2021/01/24 03:25:21;;;;;;;16.67;10.83;;;;;;;;;;5117919;28;20938;-74
2021/01/24 03:27:49;;;;;;;22.97;11.83;;;;;;;;;;5117655;28;20493;-74
2021/01/24 03:30:17;;;;;;;14.47;10.87;;;;;;;;;;5117769;28;20453;-74
2021/01/24 03:32:44;;;;;;;14.83;10.60;;;;;;;;;;5117682;28;20454;-74
2021/01/24 03:35:12;;;;;;;17.63;10.90;;;;;;;;;;5117545;28;20459;-74
2021/01/24 03:37:40;;;;;;;16.73;10.17;;;;;;;;;;5117923;28;20470;-74
2021/01/24 03:40:09;;;;;;;18.40;11.60;;;;;;;;;;5118344;28;20494;-74
2021/01/24 03:42:37;;;;;;;14.13;10.93;;;;;;;;;;5117808;28;20463;-74
2021/01/24 03:45:04;;;;;;;16.83;11.30;;;;;;;;;;5116564;28;20447;-74
2021/01/24 03:47:32;;;;;;;15.60;10.10;;;;;;;;;;5118517;28;20805;-74
2021/01/24 03:50:00;;;;;;;11.87;9.63;;;;;;;;;;5116823;28;20454;-74
2021/01/24 03:52:27;;;;;;;16.27;12.20;;;;;;;;;;5117554;28;20482;-74
2021/01/24 03:54:54;;;;;;;13.67;9.80;;;;;;;;;;5117062;28;20447;-75
2021/01/24 03:57:23;;;;;;;14.97;10.13;;;;;;;;;;5117110;28;20843;-74
2021/01/24 03:59:53;;;;;;;14.47;10.03;;;;;;;;;;5117211;28;20883;-73
2021/01/24 04:02:21;;;;;;;15.87;9.97;;;;;;;;;;5117073;28;20524;-74
2021/01/24 04:04:48;;;;;;;15.33;10.07;;;;;;;;;;5117216;28;20448;-75
2021/01/24 04:07:17;;;;;;;15.93;10.50;;;;;;;;;;5116753;28;20487;-74
2021/01/24 04:09:44;;;;;;;20.40;10.97;;;;;;;;;;5108382;28;20455;-73
2021/01/24 04:12:12;;;;;;;17.00;11.63;;;;;;;;;;5116959;28;20612;-74
2021/01/24 04:14:41;;;;;;;15.83;10.83;;;;;;;;;;5117146;28;20688;-74
2021/01/24 04:17:08;;;;;;;15.00;10.50;;;;;;;;;;5116763;28;20451;-74
2021/01/24 04:19:35;;;;;;;16.47;10.20;;;;;;;;;;5116845;28;20484;-74
2021/01/24 04:22:03;;;;;;;18.63;10.73;;;;;;;;;;5116229;28;20549;-74
2021/01/24 04:24:30;;;;;;;13.97;10.13;;;;;;;;;;5117022;28;20485;-73
2021/01/24 04:26:58;;;;;;;17.23;11.67;;;;;;;;;;5116536;28;20482;-74
2021/01/24 04:29:25;;;;;;;14.13;10.10;;;;;;;;;;5116913;28;20510;-73
2021/01/24 04:31:54;;;;;;;13.03;9.60;;;;;;;;;;5116740;28;20454;-74
2021/01/24 04:34:21;;;;;;;14.40;9.37;;;;;;;;;;5116583;28;20454;-74
2021/01/24 04:36:48;;;;;;;15.47;9.23;;;;;;;;;;5116725;28;20447;-73
2021/01/24 04:39:16;;;;;;;15.90;9.90;;;;;;;;;;5116478;28;20516;-73
2021/01/24 04:41:44;;;;;;;14.27;9.77;;;;;;;;;;5116867;28;20475;-73
2021/01/24 04:44:11;;;;;;;14.97;9.53;;;;;;;;;;5115665;28;20473;-73
2021/01/24 04:46:41;;;;;;;13.03;9.50;;;;;;;;;;5116414;28;20491;-73
2021/01/24 04:49:09;;;;;;;16.07;11.10;;;;;;;;;;5116541;28;20451;-73
2021/01/24 04:51:37;;;;;;;13.67;10.67;;;;;;;;;;5116457;28;20455;-74
2021/01/24 04:54:04;;;;;;;14.10;10.07;;;;;;;;;;5117500;28;20443;-73
2021/01/24 04:56:35;;;;;;;17.97;11.37;;;;;;;;;;5118645;28;20528;-73
2021/01/24 04:59:02;;;;;;;16.20;9.10;;;;;;;;;;5120841;28;20523;-74
2021/01/24 05:01:30;;;;;;;13.27;9.67;;;;;;;;;;5121383;28;20722;-74
2021/01/24 05:03:57;;;;;;;16.27;9.87;;;;;;;;;;5120330;28;20473;-74
2021/01/24 05:06:29;;;;;;;13.70;9.10;;;;;;;;;;5120953;28;20745;-74
2021/01/24 05:09:00;;;;;;;15.20;9.57;;;;;;;;;;5120420;28;20466;-74
2021/01/24 05:11:27;;;;;;;15.30;10.37;;;;;;;;;;5120159;28;20882;-74
2021/01/24 05:13:54;;;;;;;17.90;10.80;;;;;;;;;;5120278;28;20455;-74
2021/01/24 05:16:23;;;;;;;13.43;9.77;;;;;;;;;;5119789;28;20450;-74
2021/01/24 05:18:59;;;;;;;14.20;9.93;;;;;;;;;;5120164;28;20541;-73
2021/01/24 05:21:32;;;;;;;13.93;9.70;;;;;;;;;;5120296;28;20454;-74
2021/01/24 05:24:00;;;;;;;15.90;9.80;;;;;;;;;;5119870;28;20463;-74
2021/01/24 05:26:27;;;;;;;15.67;10.37;;;;;;;;;;5119989;28;20490;-74
2021/01/24 05:28:55;;;;;;;13.93;10.20;;;;;;;;;;5120072;28;20763;-73
2021/01/24 05:31:23;;;;;;;14.43;9.00;;;;;;;;;;5120177;28;20451;-73
2021/01/24 05:33:50;;;;;;;14.37;9.80;;;;;;;;;;5119468;28;20459;-73
2021/01/24 05:36:17;;;;;;;15.37;9.10;;;;;;;;;;5120034;28;20862;-73
2021/01/24 05:38:46;;;;;;;12.90;11.17;;;;;;;;;;5119910;28;20459;-74
2021/01/24 05:41:13;;;;;;;15.57;9.00;;;;;;;;;;5119440;28;20466;-73
2021/01/24 05:43:41;;;;;;;13.90;9.00;;;;;;;;;;5119655;28;20465;-74
2021/01/24 05:46:09;;;;;;;12.80;10.03;;;;;;;;;;5119948;28;20585;-73
2021/01/24 05:48:37;;;;;;;14.53;9.90;;;;;;;;;;5119498;28;20451;-73
2021/01/24 05:51:06;;;;;;;16.20;10.20;;;;;;;;;;5119791;28;20462;-73
2021/01/24 05:53:38;;;;;;;16.83;9.43;;;;;;;;;;5119466;28;20462;-75
2021/01/24 05:56:10;;;;;;;16.83;9.83;;;;;;;;;;5119406;28;20452;-73
2021/01/24 05:58:41;;;;;;;17.70;11.00;;;;;;;;;;5119464;28;20470;-73
2021/01/24 06:01:09;;;;;;;17.63;10.00;;;;;;;;;;5119554;28;20863;-73
2021/01/24 06:03:37;;;;;;;15.73;10.23;;;;;;;;;;5118923;28;20455;-74
2021/01/24 06:06:05;;;;;;;17.40;10.87;;;;;;;;;;5118918;28;20498;-73
2021/01/24 06:08:33;;;;;;;14.37;10.17;;;;;;;;;;5118552;28;20548;-73
2021/01/24 06:11:00;;;;;;;17.23;10.80;;;;;;;;;;5119128;28;20455;-73
2021/01/24 06:13:29;;;;;;;18.63;12.60;;;;;;;;;;5118765;28;20487;-73
2021/01/24 06:16:05;;;;;;;13.73;9.83;;;;;;;;;;5118782;28;20734;-73
2021/01/24 06:18:35;;;;;;;17.03;11.33;;;;;;;;;;5118925;28;20523;-73
2021/01/24 06:21:04;;;;;;;16.47;10.37;;;;;;;;;;5118629;28;20450;-73
2021/01/24 06:23:34;;;;;;;15.83;10.17;;;;;;;;;;5118648;28;20716;-73
2021/01/24 06:26:03;;;;;;;14.10;10.30;;;;;;;;;;5118967;28;20891;-73
2021/01/24 06:28:35;;;;;;;15.40;9.73;;;;;;;;;;5118714;28;20455;-73
2021/01/24 06:31:02;;;;;;;16.10;9.83;;;;;;;;;;5118778;28;20483;-74
2021/01/24 06:33:30;;;;;;;12.13;9.37;;;;;;;;;;5118034;28;20452;-74
2021/01/24 06:36:03;;;;;;;18.80;10.70;;;;;;;;;;5118141;28;20444;-74
2021/01/24 06:38:32;;;;;;;17.80;10.87;;;;;;;;;;5118401;28;20543;-74
2021/01/24 06:41:00;;;;;;;20.53;10.70;;;;;;;;;;5118521;28;20882;-74
2021/01/24 06:43:43;;;;;;;14.67;10.20;;;;;;;;;;5118015;28;20550;-74
2021/01/24 06:46:31;;;;;;;19.63;11.23;;;;;;;;;;5118269;28;20523;-74
2021/01/24 06:48:58;;;;;;;18.57;11.83;;;;;;;;;;5118548;28;20843;-75
2021/01/24 06:51:33;;;;;;;17.00;10.40;;;;;;;;;;5118063;28;20459;-74
2021/01/24 06:54:01;;;;;;;16.00;11.00;;;;;;;;;;5118484;28;20458;-74
2021/01/24 06:56:38;;;;;;;15.90;9.93;;;;;;;;;;5118689;28;20482;-74
2021/01/24 06:59:07;;;;;;;14.50;10.43;;;;;;;;;;5118853;28;20459;-74
2021/01/24 07:01:35;;;;;;;15.70;10.30;;;;;;;;;;5118645;28;20455;-74
2021/01/24 07:04:21;;;;;;;18.10;11.77;;;;;;;;;;5118699;28;20856;-74
2021/01/24 07:06:48;;;;;;;14.57;10.20;;;;;;;;;;5118572;28;20483;-74
2021/01/24 07:09:34;;;;;;;14.87;10.97;;;;;;;;;;5117831;28;20897;-74
2021/01/24 07:12:03;;;;;;;18.00;10.97;;;;;;;;;;5118021;28;20447;-74
2021/01/24 07:14:51;;;;;;;17.33;10.50;;;;;;;;;;5118142;28;20470;-74
2021/01/24 07:17:19;;;;;;;20.00;11.30;;;;;;;;;;5117787;28;20456;-74
2021/01/24 07:19:48;;;;;;;19.43;13.43;;;;;;;;;;5116850;28;20517;-75
2021/01/24 07:22:16;;;;;;;20.40;11.63;;;;;;;;;;5117654;28;20451;-74
2021/01/24 07:24:45;;;;;;;18.20;11.80;;;;;;;;;;5117314;28;20458;-74
2021/01/24 07:27:13;;;;;;;17.83;11.37;;;;;;;;;;5117828;28;20483;-74
2021/01/24 07:29:41;;;;;;;20.10;14.23;;;;;;;;;;5118017;28;20447;-74
2021/01/24 07:32:10;;;;;;;16.17;10.83;;;;;;;;;;5117391;28;20447;-73
2021/01/24 07:34:38;;;;;;;17.87;13.03;;;;;;;;;;5117540;28;20560;-73
2021/01/24 07:37:06;;;;;;;21.47;13.63;;;;;;;;;;5117723;28;20447;-73
2021/01/24 07:39:34;;;;;;;18.50;13.10;;;;;;;;;;5117572;28;20455;-74
2021/01/24 07:42:02;;;;;;;21.10;12.53;;;;;;;;;;5117653;28;20459;-73
2021/01/24 07:44:29;;;;;;;16.97;11.87;;;;;;;;;;5117710;28;20467;-74
2021/01/24 07:46:57;;;;;;;18.07;12.20;;;;;;;;;;5117141;28;20483;-73
2021/01/24 07:49:26;;;;;;;20.93;12.33;;;;;;;;;;5117827;28;20517;-74
2021/01/24 07:51:54;;;;;;;19.90;12.80;;;;;;;;;;5117829;28;20455;-74
2021/01/24 07:54:24;;;;;;;19.60;11.93;;;;;;;;;;5117716;28;20966;-74
2021/01/24 07:56:52;;;;;;;23.10;12.37;;;;;;;;;;5117995;28;20726;-74
2021/01/24 07:59:20;;;;;;;19.90;13.23;;;;;;;;;;5118475;28;20554;-74
2021/01/24 08:01:47;;;;;;;24.63;14.07;;;;;;;;;;5117793;28;20447;-74
2021/01/24 08:04:14;;;;;;;19.27;12.50;;;;;;;;;;5118730;28;20561;-74
2021/01/24 08:06:43;;;;;;;26.90;15.00;;;;;;;;;;5108692;28;20490;-74
2021/01/24 08:09:11;;;;;;;17.87;12.40;;;;;;;;;;5117305;28;20455;-74
2021/01/24 08:11:38;;;;;;;20.93;14.30;;;;;;;;;;5117447;28;20465;-74
2021/01/24 08:14:06;;;;;;;21.30;14.50;;;;;;;;;;5116519;28;20747;-74
2021/01/24 08:16:36;;;;;;;21.97;15.20;;;;;;;;;;5117094;28;20439;-74
2021/01/24 08:19:04;;;;;;;20.67;13.87;;;;;;;;;;5117094;28;20456;-74
2021/01/24 08:21:32;;;;;;;21.60;13.47;;;;;;;;;;5116648;28;20447;-74
2021/01/24 08:24:01;;;;;;;22.23;14.07;;;;;;;;;;5116640;28;20534;-74
2021/01/24 08:26:29;;;;;;;26.67;14.60;;;;;;;;;;5116584;28;20483;-74
2021/01/24 08:28:56;;;;;;;26.30;15.53;;;;;;;;;;5117298;28;20859;-74
2021/01/24 08:31:24;;;;;;;20.20;15.30;;;;;;;;;;5100970;28;21125;-74
2021/01/24 08:33:52;;;;;;;19.43;13.27;;;;;;;;;;5099754;28;20468;-73
2021/01/24 08:36:21;;;;;;;21.40;14.60;;;;;;;;;;5099735;28;20475;-73
2021/01/24 08:38:48;;;;;;;22.90;15.73;;;;;;;;;;5100503;28;20456;-73
2021/01/24 08:41:18;;;;;;;22.13;15.50;;;;;;;;;;5100147;28;20456;-73
2021/01/24 08:43:45;;;;;;;20.23;15.80;;;;;;;;;;5100590;28;20848;-74
2021/01/24 08:46:22;;;;;;;24.83;16.37;;;;;;;;;;5100327;28;20490;-74
2021/01/24 08:49:00;;;;;;;22.67;15.20;;;;;;;;;;5100482;28;20855;-73
2021/01/24 08:51:39;;;;;;;22.70;15.50;;;;;;;;;;5100291;28;20447;-73
2021/01/24 08:54:14;;;;;;;21.43;15.33;;;;;;;;;;5100107;28;20460;-73
2021/01/24 08:56:42;;;;;;;21.20;14.20;;;;;;;;;;5100144;28;20789;-74
2021/01/24 08:59:20;;;;;;;24.20;16.60;;;;;;;;;;5099888;28;20742;-74
2021/01/24 09:01:48;;;;;;;21.90;14.07;;;;;;;;;;5101283;28;20454;-74
2021/01/24 09:04:20;;;;;;;27.00;14.60;;;;;;;;;;5120290;28;20862;-74
2021/01/24 09:07:00;;;;;;;21.57;13.77;;;;;;;;;;5120082;28;20506;-74
2021/01/24 09:09:27;;;;;;;21.17;14.13;;;;;;;;;;5119884;28;20462;-74
2021/01/24 09:11:56;;;;;;;23.93;15.30;;;;;;;;;;5120147;28;20451;-74
2021/01/24 09:14:24;;;;;;;18.53;14.30;;;;;;;;;;5120532;28;20450;-74
2021/01/24 09:17:01;;;;;;;22.77;13.50;;;;;;;;;;5119945;28;20544;-74
2021/01/24 09:19:28;;;;;;;22.07;14.27;;;;;;;;;;5119588;28;21030;-74
2021/01/24 09:21:56;;;;;;;24.23;15.37;;;;;;;;;;5119632;28;20442;-74
2021/01/24 09:24:23;;;;;;;23.63;14.33;;;;;;;;;;5119063;28;20724;-74
2021/01/24 09:26:51;;;;;;;24.93;16.30;;;;;;;;;;5119085;28;20494;-74
2021/01/24 09:29:19;;;;;;;22.30;15.23;;;;;;;;;;5119566;28;20458;-74
2021/01/24 09:31:47;;;;;;;23.50;16.43;;;;;;;;;;5119240;28;20477;-74
2021/01/24 09:34:14;;;;;;;24.70;15.70;;;;;;;;;;5119716;28;20493;-74
2021/01/24 09:36:41;;;;;;;25.80;15.07;;;;;;;;;;5119361;28;20454;-74
2021/01/24 09:39:09;;;;;;;24.30;15.30;;;;;;;;;;5120037;28;20523;-73
2021/01/24 09:41:36;;;;;;;20.20;15.23;;;;;;;;;;5117605;28;20485;-74
2021/01/24 09:44:04;;;;;;;18.90;13.67;;;;;;;;;;5098005;28;20460;-74
2021/01/24 09:46:33;;;;;;;20.57;13.50;;;;;;;;;;5101571;28;20548;-75
2021/01/24 09:49:00;;;;;;;25.20;15.33;;;;;;;;;;5113494;28;20447;-74
2021/01/24 09:51:28;;;;;;;22.77;14.83;;;;;;;;;;5116308;28;20791;-74
2021/01/24 09:53:59;;;;;;;23.20;14.93;;;;;;;;;;5098327;28;20462;-74
2021/01/24 09:56:27;;;;;;;20.07;14.20;;;;;;;;;;5098503;28;20481;-74
2021/01/24 09:58:55;;;;;;;22.70;15.10;;;;;;;;;;5098021;28;20452;-74
2021/01/24 10:01:23;;;;;;;19.90;13.27;;;;;;;;;;5112868;28;20462;-73
2021/01/24 10:03:52;;;;;;;18.87;13.57;;;;;;;;;;5114451;28;20488;-74
2021/01/24 10:06:22;;;;;;;20.93;14.00;;;;;;;;;;5097768;28;20488;-73
2021/01/24 10:08:50;;;;;;;19.00;13.43;;;;;;;;;;5105447;28;20459;-73
2021/01/24 10:11:21;;;;;;;16.67;11.80;;;;;;;;;;5117501;28;20451;-73
2021/01/24 10:13:49;;;;;;;18.63;12.53;;;;;;;;;;5118773;28;20455;-73
2021/01/24 10:16:24;;;;;;;17.47;12.57;;;;;;;;;;5118752;28;20447;-74
2021/01/24 10:18:52;;;;;;;17.20;12.30;;;;;;;;;;5118745;28;20461;-74
2021/01/24 10:21:22;;;;;;;18.40;12.50;;;;;;;;;;5118404;28;20505;-74
2021/01/24 10:23:50;;;;;;;15.53;11.23;;;;;;;;;;5118864;28;20745;-74
2021/01/24 10:26:18;;;;;;;14.80;10.53;;;;;;;;;;5111524;28;21098;-73
2021/01/24 10:28:46;;;;;;;15.73;11.03;;;;;;;;;;5097760;28;20951;-75
2021/01/24 10:31:13;;;;;;;16.43;11.50;;;;;;;;;;5097840;28;20448;-74
2021/01/24 10:33:40;;;;;;;18.00;12.03;;;;;;;;;;5116312;28;20459;-74
2021/01/24 10:36:09;;;;;;;18.97;12.47;;;;;;;;;;5117872;28;20447;-74
2021/01/24 10:38:38;;;;;;;15.47;10.90;;;;;;;;;;5118444;28;20467;-73
2021/01/24 10:41:06;;;;;;;17.50;11.63;;;;;;;;;;5107961;28;20934;-73
2021/01/24 10:43:33;;;;;;;16.43;10.43;;;;;;;;;;5097067;28;20459;-73
2021/01/24 10:46:01;;;;;;;17.10;12.00;;;;;;;;;;5097267;28;20476;-74
2021/01/24 10:48:28;;;;;;;16.17;11.70;;;;;;;;;;5097243;28;20455;-74
2021/01/24 10:50:55;;;;;;;15.83;11.13;;;;;;;;;;5097434;28;20452;-75
2021/01/24 10:53:24;;;;;;;13.50;8.80;;;;;;;;;;5096609;28;20453;-74
2021/01/24 10:55:51;;;;;;;20.00;12.40;;;;;;;;;;5097864;28;20726;-74
2021/01/24 10:58:19;;;;;;;14.43;10.90;;;;;;;;;;5097278;28;20718;-73
2021/01/24 11:00:46;;;;;;;17.77;11.10;;;;;;;;;;5097225;28;20881;-73
2021/01/24 11:03:14;;;;;;;14.53;10.93;;;;;;;;;;5097503;28;20500;-73
2021/01/24 11:05:41;;;;;;;14.53;9.60;;;;;;;;;;5097297;28;20460;-74
2021/01/24 11:08:09;;;;;;;14.47;9.27;;;;;;;;;;5096879;28;20452;-75
2021/01/24 11:10:37;;;;;;;13.80;9.93;;;;;;;;;;5096992;28;20476;-73
2021/01/24 11:13:04;;;;;;;15.90;9.27;;;;;;;;;;5096816;28;20542;-74
2021/01/24 11:15:32;;;;;;;17.53;10.37;;;;;;;;;;5096880;28;20475;-74
2021/01/24 11:17:59;;;;;;;12.90;9.50;;;;;;;;;;5097261;28;20453;-74
2021/01/24 11:20:27;;;;;;;14.97;9.00;;;;;;;;;;5096612;28;20793;-74
2021/01/24 11:22:54;;;;;;;15.23;9.43;;;;;;;;;;5097400;28;20458;-74
2021/01/24 11:25:22;;;;;;;15.27;10.00;;;;;;;;;;5096973;28;20536;-73
2021/01/24 11:27:50;;;;;;;12.97;9.57;;;;;;;;;;5097246;28;20488;-74
2021/01/24 11:30:18;;;;;;;11.40;7.10;;;;;;;;;;5096858;28;20456;-74
2021/01/24 11:32:46;;;;;;;13.70;8.17;;;;;;;;;;5097192;28;20861;-74
2021/01/24 11:35:15;;;;;;;15.70;7.63;;;;;;;;;;5097084;28;20456;-74
2021/01/24 11:37:43;;;;;;;11.77;7.37;;;;;;;;;;5097023;28;20448;-74
2021/01/24 11:40:12;;;;;;;10.67;7.57;;;;;;;;;;5097547;28;20555;-74
2021/01/24 11:42:40;;;;;;;11.40;7.50;;;;;;;;;;5097413;28;20546;-75
2021/01/24 11:45:09;;;;;;;9.50;6.57;;;;;;;;;;5097168;28;20456;-74
2021/01/24 11:47:37;;;;;;;10.17;6.77;;;;;;;;;;5096322;28;20495;-74
2021/01/24 11:50:04;;;;;;;10.40;7.80;;;;;;;;;;5099186;28;20458;-74
2021/01/24 11:52:32;;;;;;;13.50;8.50;;;;;;;;;;5110014;28;20741;-74
2021/01/24 11:55:00;;;;;;;10.50;6.37;;;;;;;;;;5097315;28;20460;-74
2021/01/24 11:57:30;;;;;;;9.90;7.03;;;;;;;;;;5111500;28;20447;-74
2021/01/24 11:59:58;;;;;;;10.13;6.33;;;;;;;;;;5096828;28;20856;-74
2021/01/24 12:02:26;;;;;;;12.20;6.87;;;;;;;;;;5096682;28;20448;-74
2021/01/24 12:04:53;;;;;;;11.80;7.60;;;;;;;;;;5095981;28;20484;-73
2021/01/24 12:07:22;;;;;;;12.73;6.47;;;;;;;;;;5096203;28;20496;-73
2021/01/24 12:09:49;;;;;;;10.93;6.83;;;;;;;;;;5096473;28;20494;-74
2021/01/24 12:12:16;;;;;;;11.67;6.83;;;;;;;;;;5096262;28;20538;-74
2021/01/24 12:14:44;;;;;;;11.67;6.87;;;;;;;;;;5096343;28;20467;-75
2021/01/24 12:17:44;;;;;;;10.17;6.30;;;;;;;;;;5096317;28;20460;-73
2021/01/24 12:20:13;;;;;;;8.30;7.17;;;;;;;;;;5107395;28;20459;-75
2021/01/24 12:22:42;;;;;;;9.23;6.20;;;;;;;;;;5099483;28;20479;-74
2021/01/24 12:25:15;;;;;;;8.70;6.37;;;;;;;;;;5111365;28;20455;-74
2021/01/24 12:30:43;;;;;;;6.67;5.10;;;;;;;;;;5099419;28;20478;-74
2021/01/24 12:33:31;;;;;;;8.10;5.30;;;;;;;;;;5097024;28;20446;-73
2021/01/24 12:36:02;;;;;;;9.80;6.73;;;;;;;;;;5096728;28;20456;-74
2021/01/24 12:38:30;;;;;;;9.20;5.33;;;;;;;;;;5110526;28;20825;-74
2021/01/24 12:40:57;;;;;;;7.40;5.60;;;;;;;;;;5112161;28;20443;-74
2021/01/24 12:43:28;;;;;;;9.43;5.83;;;;;;;;;;5117763;28;20467;-74
2021/01/24 12:46:00;;;;;;;7.20;5.13;;;;;;;;;;5096736;28;20452;-74
2021/01/24 12:48:27;;;;;;;7.00;5.10;;;;;;;;;;5103511;28;20805;-73
2021/01/24 12:51:11;;;;;;;8.17;5.27;;;;;;;;;;5115138;28;20436;-73
2021/01/24 12:53:44;;;;;;;6.70;4.93;;;;;;;;;;5116183;28;20460;-74
2021/01/24 12:56:11;;;;;;;8.17;4.83;;;;;;;;;;5115595;28;20514;-74
2021/01/24 12:58:39;;;;;;;9.40;4.67;;;;;;;;;;5117883;28;20439;-74
2021/01/24 13:01:06;;;;;;;10.60;5.03;;;;;;;;;;5114662;28;20482;-73
2021/01/24 13:03:34;;;;;;;5.90;3.57;;;;;;;;;;5116690;28;20455;-73
2021/01/24 13:06:02;;;;;;;4.00;2.60;;;;;;;;;;5117158;28;20454;-75
2021/01/24 13:08:32;;;;;;;3.87;2.57;;;;;;;;;;5114200;28;20444;-74
2021/01/24 13:11:00;;;;;;;5.00;3.47;;;;;;;;;;5115722;28;20451;-74
2021/01/24 13:13:28;;;;;;;4.70;3.10;;;;;;;;;;5116319;28;20431;-74
2021/01/24 13:15:55;;;;;;;5.03;3.17;;;;;;;;;;5096444;28;20846;-74
2021/01/24 13:18:23;;;;;;;3.97;2.30;;;;;;;;;;5111986;28;20460;-73
2021/01/24 13:20:55;;;;;;;3.37;2.43;;;;;;;;;;5117598;28;20516;-73
2021/01/24 13:23:32;;;;;;;4.50;3.00;;;;;;;;;;5112634;28;20443;-74
2021/01/24 13:26:01;;;;;;;4.10;2.87;;;;;;;;;;5114008;28;20863;-74
2021/01/24 13:28:34;;;;;;;4.47;2.47;;;;;;;;;;5117232;28;20451;-74
2021/01/24 13:31:01;;;;;;;4.70;2.57;;;;;;;;;;5116532;28;20452;-74
2021/01/24 13:33:32;;;;;;;3.30;2.30;;;;;;;;;;5114874;28;20851;-74
2021/01/24 13:35:59;;;;;;;5.73;3.13;;;;;;;;;;5117209;28;20487;-74
2021/01/24 13:38:27;;;;;;;4.60;2.90;;;;;;;;;;5117899;28;20459;-74
2021/01/24 13:40:55;;;;;;;3.60;2.50;;;;;;;;;;5118396;28;20460;-74
2021/01/24 13:43:23;;;;;;;5.07;2.93;;;;;;;;;;5119452;27;20455;-74
2021/01/24 13:46:09;;;;;;;5.33;3.00;;;;;;;;;;5121147;27;20482;-74
2021/01/24 13:48:39;;;;;;;6.67;4.40;;;;;;;;;;5115138;28;20479;-73
2021/01/24 13:51:07;;;;;;;5.67;3.80;;;;;;;;;;5118759;28;20540;-73
2021/01/24 13:53:42;;;;;;;9.80;3.60;;;;;;;;;;5119046;28;20463;-72
2021/01/24 13:56:10;;;;;;;6.47;5.20;;;;;;;;;;5117498;27;20466;-74
2021/01/24 13:58:39;;;;;;;5.40;3.53;;;;;;;;;;5118111;28;20515;-74
2021/01/24 14:01:21;;;;;;;8.73;5.47;;;;;;;;;;5117776;28;21184;-74
2021/01/24 14:03:49;;;;;;;6.30;4.10;;;;;;;;;;5105057;28;20888;-73
2021/01/24 14:06:21;;;;;;;5.83;4.17;;;;;;;;;;5119491;28;20459;-73
2021/01/24 14:08:48;;;;;;;6.87;3.67;;;;;;;;;;5106470;28;20427;-74
2021/01/24 14:11:16;;;;;;;5.97;3.70;;;;;;;;;;5116882;27;20459;-74
2021/01/24 14:13:45;;;;;;;7.23;4.43;;;;;;;;;;5120031;28;20468;-73
2021/01/24 14:16:12;;;;;;;5.20;3.83;;;;;;;;;;5110859;28;20474;-73
2021/01/24 14:18:44;;;;;;;6.80;3.20;;;;;;;;;;5118828;28;20477;-73
2021/01/24 14:21:15;;;;;;;4.77;3.03;;;;;;;;;;5119587;28;20462;-74
2021/01/24 14:23:47;;;;;;;4.70;3.33;;;;;;;;;;5118859;28;20479;-73
2021/01/24 14:26:18;;;;;;;4.80;3.13;;;;;;;;;;5120513;28;20463;-73
2021/01/24 14:28:47;;;;;;;7.37;3.37;;;;;;;;;;5116926;28;20439;-73
2021/01/24 14:31:15;;;;;;;7.90;4.77;;;;;;;;;;5098433;28;20463;-73
2021/01/24 14:33:46;;;;;;;8.50;4.70;;;;;;;;;;5098549;28;20530;-73
2021/01/24 14:36:13;;;;;;;6.33;4.40;;;;;;;;;;5120418;27;20447;-73